createdAt,value
2022-08-18T00:02:17.315Z,42.07
2022-08-18T00:04:49.630Z,43.95
2022-08-18T00:07:19.559Z,45.90
2022-08-18T00:09:48.715Z,46.71
2022-08-18T00:12:19.793Z,46.46
2022-08-18T00:14:48.229Z,47.08
2022-08-18T00:17:16.556Z,48.60
2022-08-18T00:19:47.588Z,48.30
2022-08-18T00:22:18.932Z,49.09
2022-08-18T00:24:49.823Z,50.20
2022-08-18T00:27:22.992Z,52.30
2022-08-18T00:29:52.368Z,53.28
2022-08-18T00:32:23.340Z,55.61
2022-08-18T00:34:50.955Z,56.88
2022-08-18T00:37:18.628Z,58.41
2022-08-18T00:39:47.806Z,61.66
2022-08-18T00:42:27.505Z,65.62
2022-08-18T00:45:00.665Z,67.63
2022-08-18T00:47:33.169Z,71.95
2022-08-18T00:50:14.864Z,76.81
2022-08-18T00:52:45.436Z,86.87
2022-08-18T00:55:14.813Z,92.61
2022-08-18T00:57:43.417Z,97.69
2022-08-18T01:00:15.172Z,100.00
2022-08-18T01:02:45.919Z,100.00
2022-08-18T01:05:19.619Z,100.00
2022-08-18T01:07:49.509Z,100.00
2022-08-18T01:10:21.272Z,100.00
2022-08-18T01:12:51.640Z,100.00
2022-08-18T01:15:28.023Z,100.00
2022-08-18T01:18:15.568Z,100.00
2022-08-18T01:21:14.782Z,100.00
2022-08-18T01:23:43.887Z,100.00
2022-08-18T01:26:11.061Z,100.00
2022-08-18T01:28:40.751Z,100.00
2022-08-18T01:31:10.170Z,100.00
2022-08-18T01:33:42.249Z,100.00
2022-08-18T01:36:14.549Z,100.00
2022-08-18T01:38:44.117Z,100.00
2022-08-18T01:41:27.012Z,100.00
2022-08-18T01:43:56.894Z,100.00
2022-08-18T01:46:24.440Z,100.00
2022-08-18T01:48:52.094Z,100.00
2022-08-18T01:51:34.744Z,100.00
2022-08-18T01:54:11.753Z,100.00
2022-08-18T01:56:40.690Z,100.00
2022-08-18T01:59:10.318Z,100.00
2022-08-18T02:01:46.619Z,100.00
2022-08-18T02:04:34.586Z,100.00
2022-08-18T02:07:06.726Z,100.00
2022-08-18T02:09:37.289Z,100.00
2022-08-18T02:12:07.179Z,100.00
2022-08-18T02:14:34.995Z,100.00
2022-08-18T02:17:04.274Z,100.00
2022-08-18T02:19:34.251Z,100.00
2022-08-18T02:22:02.462Z,100.00
2022-08-18T02:24:30.277Z,100.00
2022-08-18T02:26:59.163Z,100.00
2022-08-18T02:29:26.718Z,100.00
2022-08-18T02:31:54.461Z,100.00
2022-08-18T02:34:22.017Z,100.00
2022-08-18T02:36:49.786Z,100.00
2022-08-18T02:39:17.310Z,100.00
2022-08-18T02:41:45.207Z,100.00
2022-08-18T02:44:14.296Z,100.00
2022-08-18T02:46:41.865Z,100.00
2022-08-18T02:49:09.406Z,100.00
2022-08-18T02:51:37.335Z,100.00
2022-08-18T02:54:09.164Z,100.00
2022-08-18T02:56:41.857Z,100.00
2022-08-18T02:59:13.942Z,100.00
2022-08-18T03:01:46.082Z,100.00
2022-08-18T03:04:15.771Z,100.00
2022-08-18T03:06:45.369Z,100.00
2022-08-18T03:09:14.724Z,100.00
2022-08-18T03:11:43.606Z,100.00
2022-08-18T03:14:12.300Z,100.00
2022-08-18T03:16:52.776Z,100.00
2022-08-18T03:19:24.346Z,100.00
2022-08-18T03:21:52.526Z,100.00
2022-08-18T03:24:22.934Z,100.00
2022-08-18T03:26:52.574Z,100.00
2022-08-18T03:29:21.242Z,100.00
2022-08-18T03:31:49.102Z,100.00
2022-08-18T03:34:19.577Z,100.00
2022-08-18T03:36:49.083Z,100.00
2022-08-18T03:39:17.030Z,100.00
2022-08-18T03:41:59.702Z,100.00
2022-08-18T03:44:31.380Z,100.00
2022-08-18T03:47:00.142Z,100.00
2022-08-18T03:49:27.876Z,100.00
2022-08-18T03:52:00.035Z,100.00
2022-08-18T03:54:27.779Z,100.00
2022-08-18T03:56:55.818Z,100.00
2022-08-18T03:59:26.976Z,98.28
2022-08-18T04:01:55.912Z,100.00
2022-08-18T04:04:26.066Z,92.51
2022-08-18T04:06:58.304Z,86.32
2022-08-18T04:09:27.609Z,85.93
2022-08-18T04:11:55.675Z,89.19
2022-08-18T04:14:26.048Z,91.29
2022-08-18T04:16:53.734Z,95.46
2022-08-18T04:19:26.149Z,92.40
2022-08-18T04:21:57.943Z,87.14
2022-08-18T04:24:28.237Z,85.13
2022-08-18T04:27:01.027Z,86.49
2022-08-18T04:29:29.268Z,85.88
2022-08-18T04:31:56.849Z,84.17
2022-08-18T04:34:24.479Z,82.55
2022-08-18T04:36:53.825Z,83.54
2022-08-18T04:39:23.981Z,83.79
2022-08-18T04:41:52.557Z,81.19
2022-08-18T04:44:21.652Z,80.27
2022-08-18T04:46:52.037Z,79.35
2022-08-18T04:49:21.505Z,77.26
2022-08-18T04:52:38.971Z,76.24
2022-08-18T04:54:54.150Z,74.97
2022-08-18T04:57:22.955Z,73.83
2022-08-18T04:59:52.390Z,73.35
2022-08-18T05:02:22.831Z,71.87
2022-08-18T05:04:52.266Z,70.40
2022-08-18T05:07:22.548Z,70.50
2022-08-18T05:09:50.356Z,71.92
2022-08-18T05:12:19.243Z,73.25
2022-08-18T05:14:51.928Z,73.27
2022-08-18T05:17:19.470Z,73.81
2022-08-18T05:19:47.038Z,72.73
2022-08-18T05:22:19.342Z,73.38
2022-08-18T05:24:53.837Z,74.11
2022-08-18T05:27:22.671Z,73.33
2022-08-18T05:29:51.735Z,74.95
2022-08-18T05:32:41.083Z,73.83
2022-08-18T05:35:12.122Z,74.92
2022-08-18T05:37:49.483Z,72.60
2022-08-18T05:40:17.163Z,67.97
2022-08-18T05:42:48.657Z,66.25
2022-08-18T05:45:18.783Z,66.15
2022-08-18T05:47:47.450Z,66.39
2022-08-18T05:50:18.105Z,66.33
2022-08-18T05:52:52.559Z,66.49
2022-08-18T05:55:47.651Z,73.19
2022-08-18T05:58:20.817Z,74.99
2022-08-18T06:00:57.513Z,79.71
2022-08-18T06:03:45.282Z,87.20
2022-08-18T06:06:19.397Z,84.67
2022-08-18T06:08:53.716Z,78.33
2022-08-18T06:11:22.201Z,71.05
2022-08-18T06:13:54.223Z,66.81
2022-08-18T06:16:37.992Z,63.89
2022-08-18T06:19:27.291Z,58.26
2022-08-18T06:22:03.593Z,53.39
2022-08-18T06:24:36.967Z,47.73
2022-08-18T06:27:15.825Z,47.07
2022-08-18T06:29:57.931Z,45.87
2022-08-18T06:32:31.146Z,41.65
2022-08-18T06:35:11.735Z,39.14
2022-08-18T06:38:00.550Z,36.31
2022-08-18T06:40:28.103Z,36.58
2022-08-18T06:42:55.742Z,37.79
2022-08-18T06:45:40.132Z,40.07
2022-08-18T06:48:15.271Z,36.77
2022-08-18T06:50:50.032Z,35.15
2022-08-18T06:53:26.415Z,35.49
2022-08-18T06:55:56.215Z,33.26
2022-08-18T06:58:29.923Z,32.61
2022-08-18T07:01:03.118Z,34.76
2022-08-18T07:03:47.596Z,36.28
2022-08-18T07:06:29.241Z,34.63
2022-08-18T07:09:20.606Z,33.61
2022-08-18T07:12:01.104Z,31.13
2022-08-18T07:14:28.669Z,28.12
2022-08-18T07:17:09.351Z,32.25
2022-08-18T07:19:37.144Z,31.11
2022-08-18T07:22:08.876Z,36.48
2022-08-18T07:24:41.501Z,36.71
2022-08-18T07:27:11.288Z,42.54
2022-08-18T07:29:40.741Z,38.65
2022-08-18T07:32:21.524Z,36.98
2022-08-18T07:34:55.070Z,39.34
2022-08-18T07:37:29.001Z,42.41
2022-08-18T07:40:02.299Z,41.75
2022-08-18T07:42:53.851Z,41.41
2022-08-18T07:45:27.900Z,44.04
2022-08-18T07:48:15.675Z,49.96
2022-08-18T07:51:01.447Z,47.18
2022-08-18T07:53:40.173Z,42.91
2022-08-18T07:56:18.599Z,40.78
2022-08-18T07:58:53.244Z,41.34
2022-08-18T08:01:29.656Z,41.49
2022-08-18T08:04:25.266Z,41.90
2022-08-18T08:07:23.427Z,42.39
2022-08-18T08:09:58.347Z,42.46
2022-08-18T08:12:36.957Z,45.65
2022-08-18T08:15:13.576Z,45.35
2022-08-18T08:17:49.153Z,41.14
2022-08-18T08:20:32.513Z,39.06
2022-08-18T08:23:10.525Z,38.90
2022-08-18T08:25:48.349Z,40.86
2022-08-18T08:28:27.035Z,42.17
2022-08-18T08:31:25.665Z,42.52
2022-08-18T08:33:56.895Z,44.70
2022-08-18T08:36:31.074Z,41.13
2022-08-18T08:39:03.356Z,42.64
2022-08-18T08:41:37.434Z,45.55
2022-08-18T08:44:10.537Z,44.85
2022-08-18T08:46:46.450Z,43.56
2022-08-18T08:49:26.377Z,40.72
2022-08-18T08:51:59.254Z,39.54
2022-08-18T08:54:31.633Z,38.70
2022-08-18T08:57:02.168Z,36.97
2022-08-18T08:59:29.738Z,41.21
2022-08-18T09:02:09.296Z,40.68
2022-08-18T09:05:04.882Z,38.27
2022-08-18T09:07:50.531Z,40.53
2022-08-18T09:10:48.366Z,40.32
2022-08-18T09:13:38.547Z,39.21
2022-08-18T09:16:29.505Z,37.62
2022-08-18T09:19:13.669Z,37.06
2022-08-18T09:21:46.778Z,36.73
2022-08-18T09:24:25.693Z,37.73
2022-08-18T09:27:13.703Z,36.98
2022-08-18T09:29:51.577Z,37.09
2022-08-18T09:32:56.720Z,37.87
2022-08-18T09:35:45.516Z,42.67
2022-08-18T09:38:42.754Z,41.87
2022-08-18T09:41:33.176Z,41.10
2022-08-18T09:44:21.325Z,40.91
2022-08-18T09:46:58.693Z,37.11
2022-08-18T09:49:41.606Z,33.94
2022-08-18T09:52:55.737Z,33.38
2022-08-18T09:55:42.470Z,34.29
2022-08-18T09:58:52.686Z,33.98
2022-08-18T10:01:43.309Z,32.39
2022-08-18T10:04:29.384Z,32.05
2022-08-18T10:07:17.338Z,29.80
2022-08-18T10:09:54.836Z,29.83
2022-08-18T10:12:53.502Z,29.10
2022-08-18T10:15:35.517Z,29.09
2022-08-18T10:18:18.804Z,29.23
2022-08-18T10:20:57.078Z,31.22
2022-08-18T10:23:49.517Z,32.94
2022-08-18T10:27:05.518Z,31.65
2022-08-18T10:29:56.546Z,29.82
2022-08-18T10:32:52.098Z,28.52
2022-08-18T10:35:56.403Z,30.54
2022-08-18T10:38:30.772Z,33.34
2022-08-18T10:41:15.345Z,37.52
2022-08-18T10:43:57.228Z,34.60
2022-08-18T10:49:25.975Z,30.40
2022-08-18T10:52:17.107Z,34.17
2022-08-18T10:55:10.543Z,31.71
2022-08-18T10:57:55.218Z,28.94
2022-08-18T11:00:37.761Z,27.32
2022-08-18T11:03:40.005Z,27.85
2022-08-18T11:06:14.507Z,27.65
2022-08-18T11:08:48.668Z,29.19
2022-08-18T11:11:34.617Z,36.35
2022-08-18T11:14:23.545Z,35.93
2022-08-18T11:16:59.774Z,37.01
2022-08-18T11:19:28.311Z,36.10
2022-08-18T11:21:57.429Z,35.51
2022-08-18T11:24:28.593Z,35.55
2022-08-18T11:26:58.867Z,33.67
2022-08-18T11:29:32.430Z,35.50
2022-08-18T11:32:11.089Z,33.48
2022-08-18T11:34:51.950Z,32.39
2022-08-18T11:37:27.994Z,32.22
2022-08-18T11:49:16.143Z,33.89
2022-08-18T11:51:57.128Z,37.46
2022-08-18T11:57:46.258Z,35.39
2022-08-18T12:00:52.769Z,32.50
2022-08-18T12:06:23.586Z,29.60
2022-08-18T12:08:59.338Z,28.50
2022-08-18T12:11:31.004Z,29.03
2022-08-18T12:14:31.161Z,28.21
2022-08-18T12:16:51.221Z,27.94
2022-08-18T12:19:24.212Z,29.29
2022-08-18T12:21:54.576Z,30.19
2022-08-18T12:24:26.321Z,30.35
2022-08-18T12:29:47.622Z,30.69
2022-08-18T12:32:17.883Z,33.16
2022-08-18T12:35:09.524Z,32.12
2022-08-18T12:40:26.392Z,31.31
2022-08-18T12:42:55.756Z,29.94
2022-08-18T12:45:25.775Z,29.00
2022-08-18T12:47:54.688Z,32.05
2022-08-18T12:50:31.099Z,37.15
2022-08-18T12:53:01.477Z,36.74
2022-08-18T12:55:34.785Z,35.08
2022-08-18T12:58:05.239Z,35.02
2022-08-18T13:00:33.401Z,32.73
2022-08-18T13:03:00.934Z,32.54
2022-08-18T13:05:29.874Z,31.94
2022-08-18T13:08:04.237Z,30.06
2022-08-18T13:10:44.847Z,30.48
2022-08-18T13:13:16.189Z,30.58
2022-08-18T13:15:55.364Z,30.28
2022-08-18T13:18:27.299Z,31.45
2022-08-18T13:20:56.989Z,33.30
2022-08-18T13:23:25.290Z,31.80
2022-08-18T13:26:01.782Z,31.35
2022-08-18T13:28:35.602Z,35.51
2022-08-18T13:31:05.502Z,35.65
2022-08-18T13:33:34.991Z,35.81
2022-08-18T13:36:22.273Z,35.30
2022-08-18T13:38:50.936Z,33.90
2022-08-18T13:43:53.597Z,32.49
2022-08-18T13:46:24.230Z,31.42
2022-08-18T13:49:03.049Z,29.05
2022-08-18T13:51:31.318Z,27.73
2022-08-18T13:54:18.335Z,27.67
2022-08-18T13:56:52.109Z,28.05
2022-08-18T13:59:22.623Z,28.19
2022-08-18T14:01:52.955Z,27.86
2022-08-18T14:04:23.173Z,28.13
2022-08-18T14:06:58.783Z,30.18
2022-08-18T14:09:37.038Z,29.93
2022-08-18T14:12:15.274Z,32.05
2022-08-18T14:14:51.965Z,32.21
2022-08-18T14:17:19.887Z,31.05
2022-08-18T14:20:10.169Z,31.41
2022-08-18T14:22:56.143Z,31.50
2022-08-18T14:25:42.115Z,31.59
2022-08-18T14:28:11.924Z,31.32
2022-08-18T14:30:41.169Z,32.07
2022-08-18T14:33:21.472Z,32.06
2022-08-18T14:36:07.052Z,31.69
2022-08-18T14:38:38.179Z,32.06
2022-08-18T14:41:08.070Z,32.10
2022-08-18T14:44:00.448Z,31.39
2022-08-18T14:46:30.516Z,31.07
2022-08-18T14:49:04.056Z,30.57
2022-08-18T14:51:33.412Z,30.71
2022-08-18T14:54:01.659Z,31.07
2022-08-18T14:56:36.489Z,30.62
2022-08-18T14:59:07.605Z,31.13
2022-08-18T15:01:42.780Z,30.83
2022-08-18T15:04:18.302Z,31.28
2022-08-18T15:06:56.133Z,31.35
2022-08-18T15:09:27.269Z,30.91
2022-08-18T15:11:55.895Z,31.45
2022-08-18T15:14:26.621Z,32.02
2022-08-18T15:17:03.731Z,31.93
2022-08-18T15:20:00.521Z,32.33
2022-08-18T15:22:47.818Z,32.78
2022-08-18T15:25:33.640Z,33.12
2022-08-18T15:28:01.391Z,32.36
2022-08-18T15:30:29.112Z,31.49
2022-08-18T15:32:58.891Z,31.83
2022-08-18T15:35:26.678Z,31.77
2022-08-18T15:37:55.208Z,30.73
2022-08-18T15:40:35.445Z,31.20
2022-08-18T15:43:09.829Z,29.99
2022-08-18T15:45:56.244Z,29.62
2022-08-18T15:48:28.759Z,29.72
2022-08-18T15:50:57.008Z,29.77
2022-08-18T15:53:44.425Z,34.30
2022-08-18T15:56:14.923Z,33.08
2022-08-18T15:58:42.464Z,33.45
2022-08-18T16:01:29.957Z,32.47
2022-08-18T16:04:01.050Z,32.36
2022-08-18T16:06:32.272Z,31.56
2022-08-18T16:09:01.949Z,31.40
2022-08-18T16:11:30.039Z,31.52
2022-08-18T16:13:59.068Z,31.91
2022-08-18T16:16:35.712Z,32.03
2022-08-18T16:19:06.709Z,32.62
2022-08-18T16:21:36.296Z,33.08
2022-08-18T16:24:04.321Z,34.42
2022-08-18T16:26:31.831Z,34.16
2022-08-18T16:29:01.792Z,34.40
2022-08-18T16:31:29.924Z,33.95
2022-08-18T16:33:58.695Z,34.69
2022-08-18T16:36:27.556Z,35.41
2022-08-18T16:38:58.279Z,35.78
2022-08-18T16:41:26.870Z,35.77
2022-08-18T16:43:54.678Z,36.28
2022-08-18T16:46:25.250Z,36.61
2022-08-18T16:48:53.259Z,37.52
2022-08-18T16:51:22.876Z,38.00
2022-08-18T16:53:53.470Z,39.71
2022-08-18T16:56:23.854Z,39.37
2022-08-18T16:59:09.950Z,39.11
2022-08-18T17:01:56.493Z,38.86
2022-08-18T17:04:28.704Z,39.12
2022-08-18T17:06:57.634Z,39.19
2022-08-18T17:09:27.060Z,39.32
2022-08-18T17:11:55.015Z,38.46
2022-08-18T17:14:24.876Z,38.23
2022-08-18T17:16:55.042Z,38.86
2022-08-18T17:19:24.138Z,39.70
2022-08-18T17:21:51.775Z,40.06
2022-08-18T17:24:31.412Z,39.45
2022-08-18T17:27:25.713Z,40.29
2022-08-18T17:30:00.440Z,41.65
2022-08-18T17:32:31.577Z,42.20
2022-08-18T17:35:04.959Z,42.43
2022-08-18T17:37:34.283Z,41.48
2022-08-18T17:40:07.989Z,41.59
2022-08-18T17:42:40.423Z,42.33
2022-08-18T17:45:13.779Z,42.62
2022-08-18T17:47:56.075Z,43.35
2022-08-18T17:50:45.863Z,43.49
2022-08-18T17:53:13.587Z,43.12
2022-08-18T17:55:45.826Z,42.47
2022-08-18T17:58:20.787Z,42.14
2022-08-18T18:00:48.371Z,42.21
2022-08-18T18:03:15.871Z,42.14
2022-08-18T18:05:46.155Z,41.66
2022-08-18T18:08:13.797Z,42.09
2022-08-18T18:11:02.254Z,42.53
2022-08-18T18:13:33.764Z,44.17
2022-08-18T18:16:03.548Z,47.06
2022-08-18T18:18:41.630Z,51.63
2022-08-18T18:21:21.628Z,56.48
2022-08-18T18:23:52.091Z,57.76
2022-08-18T18:26:28.270Z,59.20
2022-08-18T18:29:19.791Z,62.30
2022-08-18T18:31:58.412Z,64.94
2022-08-18T18:34:30.144Z,67.58
2022-08-18T18:36:59.407Z,69.17
2022-08-18T18:39:33.906Z,69.18
2022-08-18T18:42:17.546Z,70.91
2022-08-18T18:44:53.154Z,71.04
2022-08-18T18:47:58.689Z,71.38
2022-08-18T18:50:33.479Z,70.57
2022-08-18T18:53:13.136Z,69.88
2022-08-18T18:55:49.534Z,71.33
2022-08-18T18:58:27.309Z,72.96
2022-08-18T19:01:00.305Z,76.45
2022-08-18T19:03:33.973Z,73.04
2022-08-18T19:06:15.317Z,72.38
2022-08-18T19:08:54.116Z,83.94
2022-08-18T19:11:29.002Z,82.92
2022-08-18T19:14:03.695Z,90.44
2022-08-18T19:16:41.720Z,97.10
2022-08-18T19:19:35.348Z,100.00
2022-08-18T19:22:10.367Z,100.00
2022-08-18T19:24:46.737Z,100.00
2022-08-18T19:27:23.611Z,100.00
2022-08-18T19:29:55.534Z,100.00
2022-08-18T19:32:34.775Z,100.00
2022-08-18T19:35:04.422Z,100.00
2022-08-18T19:37:53.861Z,100.00
2022-08-18T19:40:28.266Z,100.00
2022-08-18T19:43:01.938Z,100.00
2022-08-18T19:45:37.160Z,100.00
2022-08-18T19:48:17.694Z,100.00
2022-08-18T19:50:52.266Z,100.00
2022-08-18T19:53:52.966Z,100.00
2022-08-18T19:56:34.800Z,100.00
2022-08-18T19:59:19.624Z,100.00
2022-08-18T20:01:58.624Z,100.00
2022-08-18T20:04:44.467Z,100.00
2022-08-18T20:07:29.941Z,100.00
2022-08-18T20:10:14.650Z,100.00
2022-08-18T20:13:01.960Z,100.00
2022-08-18T20:15:31.026Z,100.00
2022-08-18T20:18:06.407Z,100.00
2022-08-18T20:20:38.556Z,100.00
2022-08-18T20:23:31.476Z,100.00
2022-08-18T20:25:59.001Z,100.00
2022-08-18T20:28:35.720Z,100.00
2022-08-18T20:31:12.449Z,100.00
2022-08-18T20:33:46.676Z,100.00
2022-08-18T20:36:24.986Z,100.00
2022-08-18T20:38:55.107Z,100.00
2022-08-18T20:41:31.957Z,100.00
2022-08-18T20:44:05.160Z,100.00
2022-08-18T20:46:43.802Z,100.00
2022-08-18T20:49:23.738Z,100.00
2022-08-18T20:52:04.052Z,100.00
2022-08-18T20:54:58.232Z,100.00
2022-08-18T20:57:34.807Z,100.00
2022-08-18T21:00:13.108Z,100.00
2022-08-18T21:02:46.973Z,100.00
2022-08-18T21:05:18.378Z,100.00
2022-08-18T21:08:04.921Z,100.00
2022-08-18T21:10:34.315Z,100.00
2022-08-18T21:13:04.277Z,100.00
2022-08-18T21:15:35.908Z,100.00
2022-08-18T21:18:06.387Z,100.00
2022-08-18T21:20:35.327Z,100.00
2022-08-18T21:23:08.198Z,100.00
2022-08-18T21:25:36.557Z,100.00
2022-08-18T21:28:07.102Z,100.00
2022-08-18T21:30:34.839Z,100.00
2022-08-18T21:33:17.760Z,100.00
2022-08-18T21:35:45.280Z,100.00
2022-08-18T21:38:14.134Z,100.00
2022-08-18T21:40:45.370Z,100.00
2022-08-18T21:43:16.209Z,100.00
2022-08-18T21:45:47.974Z,100.00
2022-08-18T21:48:16.087Z,100.00
2022-08-18T21:50:50.945Z,100.00
2022-08-18T21:53:28.161Z,100.00
2022-08-18T21:55:57.315Z,100.00
2022-08-18T21:58:33.705Z,100.00
2022-08-18T22:01:13.952Z,100.00
2022-08-18T22:03:57.686Z,100.00
2022-08-18T22:06:30.856Z,100.00
2022-08-18T22:09:24.260Z,100.00
2022-08-18T22:12:47.091Z,100.00
2022-08-18T22:15:19.815Z,100.00
2022-08-18T22:17:54.483Z,100.00
2022-08-18T22:20:42.870Z,100.00
2022-08-18T22:23:54.235Z,100.00
2022-08-18T22:26:26.946Z,100.00
2022-08-18T22:29:00.122Z,100.00
2022-08-18T22:31:32.830Z,100.00
2022-08-18T22:34:07.179Z,100.00
2022-08-18T22:36:38.912Z,100.00
2022-08-18T22:39:08.470Z,100.00
2022-08-18T22:41:36.645Z,100.00
2022-08-18T22:44:05.548Z,100.00
2022-08-18T22:46:35.288Z,100.00
2022-08-18T22:49:03.283Z,100.00
2022-08-18T22:51:32.832Z,100.00
2022-08-18T22:54:00.598Z,100.00
2022-08-18T22:56:35.059Z,100.00
2022-08-18T22:59:16.039Z,100.00
2022-08-18T23:01:50.906Z,100.00
2022-08-18T23:04:20.915Z,100.00
2022-08-18T23:06:51.845Z,100.00
2022-08-18T23:09:21.899Z,100.00
2022-08-18T23:11:49.458Z,100.00
2022-08-18T23:14:17.070Z,100.00
2022-08-18T23:16:45.481Z,100.00
2022-08-18T23:19:16.151Z,100.00
2022-08-18T23:21:44.573Z,100.00
2022-08-18T23:24:14.503Z,100.00
2022-08-18T23:26:42.712Z,100.00
2022-08-18T23:29:11.574Z,100.00
2022-08-18T23:31:41.306Z,100.00
2022-08-18T23:34:09.592Z,100.00
2022-08-18T23:36:41.231Z,100.00
2022-08-18T23:39:11.735Z,100.00
2022-08-18T23:41:39.656Z,100.00
2022-08-18T23:44:07.388Z,100.00
2022-08-18T23:46:35.703Z,100.00
2022-08-18T23:49:10.803Z,100.00
2022-08-18T23:51:44.109Z,100.00
2022-08-18T23:54:14.922Z,100.00
2022-08-18T23:56:42.463Z,100.00
2022-08-18T23:59:10.570Z,100.00
